Time;durP1;ratioP1;P1;durP2;ratioP2;P2;SDS_P1;SDS_P2;PMS_P1;PMS_P2;Temp;Humidity;BMP_temperature;BMP_pressure;BME280_temperature;BME280_humidity;BME280_pressure;Samples;Min_cycle;Max_cycle;Signal;HPM_P1;HPM_P2
2022/08/17 00:00:43;;;;;;;15.35;9.85;;;;;;;;;;6210554;22;20027;-95
2022/08/17 00:03:46;;;;;;;12.27;9.60;;;;;;;;;;6208304;22;20026;-96
2022/08/17 00:06:45;;;;;;;12.88;9.93;;;;;;;;;;6254392;22;20048;-95
2022/08/17 00:09:20;;;;;;;10.52;9.27;;;;;;;;;;6206170;22;20046;-96
2022/08/17 00:11:50;;;;;;;12.93;9.20;;;;;;;;;;6204838;22;20445;-96
2022/08/17 00:15:04;;;;;;;11.80;9.85;;;;;;;;;;6240201;22;20076;-96
2022/08/17 00:17:42;;;;;;;17.20;10.50;;;;;;;;;;6206181;22;20098;-95
2022/08/17 00:20:12;;;;;;;12.48;9.27;;;;;;;;;;6241291;22;20020;-96
2022/08/17 00:22:42;;;;;;;15.32;9.27;;;;;;;;;;6208480;22;20050;-95
2022/08/17 00:25:14;;;;;;;13.68;9.45;;;;;;;;;;6206300;22;20027;-95
2022/08/17 00:27:42;;;;;;;13.75;10.00;;;;;;;;;;6239610;22;20023;-96
2022/08/17 00:30:11;;;;;;;13.45;9.50;;;;;;;;;;6230174;22;20024;-96
2022/08/17 00:32:44;;;;;;;11.85;9.18;;;;;;;;;;6266129;22;20077;-96
2022/08/17 00:35:33;;;;;;;12.27;9.48;;;;;;;;;;6210421;22;20458;-95
2022/08/17 00:38:28;;;;;;;12.65;9.90;;;;;;;;;;6271336;22;20015;-96
2022/08/17 00:41:16;;;;;;;12.75;10.30;;;;;;;;;;6206564;22;20031;-96
2022/08/17 00:43:56;;;;;;;13.45;10.38;;;;;;;;;;6205434;22;20020;-95
2022/08/17 00:46:31;;;;;;;12.30;9.90;;;;;;;;;;6229464;22;20023;-89
2022/08/17 00:49:06;;;;;;;13.75;10.10;;;;;;;;;;6223965;22;20048;-88
2022/08/17 00:54:54;;;;;;;13.45;9.82;;;;;;;;;;6261146;22;20127;-88
2022/08/17 00:57:52;;;;;;;13.75;9.68;;;;;;;;;;6268308;22;20023;-88
2022/08/17 01:00:31;;;;;;;12.15;9.55;;;;;;;;;;6237387;22;20499;-88
2022/08/17 01:03:06;;;;;;;11.57;9.80;;;;;;;;;;6226007;22;20051;-88
2022/08/17 01:05:37;;;;;;;12.35;9.93;;;;;;;;;;6261538;22;20019;-88
2022/08/17 01:08:15;;;;;;;12.10;9.43;;;;;;;;;;6251549;22;20054;-88
2022/08/17 01:11:35;;;;;;;14.32;10.00;;;;;;;;;;6250296;22;20016;-88
2022/08/17 01:14:27;;;;;;;10.68;9.18;;;;;;;;;;6288136;22;20020;-88
2022/08/17 01:16:56;;;;;;;11.57;9.23;;;;;;;;;;6251344;22;20340;-88
2022/08/17 01:19:34;;;;;;;14.52;10.52;;;;;;;;;;6225397;22;20102;-88
2022/08/17 01:22:02;;;;;;;11.88;9.85;;;;;;;;;;6235759;22;20019;-88
2022/08/17 01:24:32;;;;;;;13.05;10.05;;;;;;;;;;6225869;22;20020;-88
2022/08/17 01:27:05;;;;;;;14.98;11.02;;;;;;;;;;6201945;22;20039;-88
2022/08/17 01:32:58;;;;;;;12.02;9.82;;;;;;;;;;6277611;22;20039;-88
2022/08/17 01:35:50;;;;;;;12.90;9.85;;;;;;;;;;6250240;22;20410;-89
2022/08/17 01:38:25;;;;;;;14.45;9.52;;;;;;;;;;6226656;22;20019;-88
2022/08/17 01:41:06;;;;;;;12.52;9.98;;;;;;;;;;6249936;22;20047;-88
2022/08/17 01:44:01;;;;;;;12.52;10.20;;;;;;;;;;6260868;22;20022;-88
2022/08/17 01:46:32;;;;;;;13.25;10.65;;;;;;;;;;6261549;22;20016;-95
2022/08/17 01:49:05;;;;;;;14.63;10.93;;;;;;;;;;6225336;22;20054;-88
2022/08/17 01:51:33;;;;;;;17.92;10.90;;;;;;;;;;6260284;22;20026;-88
2022/08/17 01:54:06;;;;;;;13.50;10.43;;;;;;;;;;6259737;22;20050;-88
2022/08/17 01:56:59;;;;;;;13.73;10.98;;;;;;;;;;6262837;22;20075;-95
2022/08/17 01:59:32;;;;;;;13.13;10.15;;;;;;;;;;6232605;22;20020;-95
2022/08/17 02:02:01;;;;;;;14.88;10.27;;;;;;;;;;6266956;22;20081;-95
2022/08/17 02:08:54;;;;;;;13.63;9.35;;;;;;;;;;6253764;22;20433;-95
2022/08/17 02:11:32;;;;;;;12.40;9.85;;;;;;;;;;6206199;22;20016;-95
2022/08/17 02:14:26;;;;;;;;;;;;;;;;;;6235722;22;20102;-95
2022/08/17 02:16:54;;;;;;;12.52;10.30;;;;;;;;;;6254998;22;19919;-95
2022/08/17 02:19:22;;;;;;;13.52;10.35;;;;;;;;;;6204776;22;20031;-95
2022/08/17 02:21:52;;;;;;;13.35;10.43;;;;;;;;;;6204698;22;20016;-95
2022/08/17 02:24:45;;;;;;;14.48;10.23;;;;;;;;;;6209147;22;20450;-95
2022/08/17 02:27:28;;;;;;;12.95;9.70;;;;;;;;;;6228389;22;20062;-95
2022/08/17 02:30:09;;;;;;;13.32;10.35;;;;;;;;;;6206246;22;20020;-96
2022/08/17 02:32:56;;;;;;;12.75;10.52;;;;;;;;;;6253170;22;20327;-95
2022/08/17 02:35:24;;;;;;;13.73;10.32;;;;;;;;;;6228635;22;20043;-96
2022/08/17 02:37:52;;;;;;;13.65;10.75;;;;;;;;;;6204357;22;20509;-95
2022/08/17 02:40:27;;;;;;;13.27;11.20;;;;;;;;;;6228120;22;20024;-96
2022/08/17 02:43:08;;;;;;;18.50;10.15;;;;;;;;;;6229977;22;20008;-95
2022/08/17 02:45:40;;;;;;;12.65;10.30;;;;;;;;;;6229060;22;20023;-96
2022/08/17 02:48:12;;;;;;;13.02;10.00;;;;;;;;;;6201681;22;20353;-88
2022/08/17 02:51:04;;;;;;;12.65;9.95;;;;;;;;;;6223915;22;20007;-88
2022/08/17 02:53:32;;;;;;;13.52;10.25;;;;;;;;;;6199983;22;20023;-88
2022/08/17 02:56:28;;;;;;;13.75;10.73;;;;;;;;;;6260567;22;20042;-96
2022/08/17 02:58:57;;;;;;;14.27;10.77;;;;;;;;;;6260668;22;20015;-95
2022/08/17 03:01:26;;;;;;;14.25;10.65;;;;;;;;;;6248470;22;20046;-96
2022/08/17 03:03:55;;;;;;;13.93;10.40;;;;;;;;;;6227287;22;20129;-96
2022/08/17 03:06:28;;;;;;;11.93;10.00;;;;;;;;;;6202247;22;20024;-95
2022/08/17 03:08:56;;;;;;;13.68;11.05;;;;;;;;;;6224521;22;20023;-88
2022/08/17 03:11:24;;;;;;;13.50;10.88;;;;;;;;;;6224668;22;20099;-88
2022/08/17 03:13:52;;;;;;;13.60;11.02;;;;;;;;;;6199502;22;20476;-88
2022/08/17 03:16:44;;;;;;;13.90;10.90;;;;;;;;;;6250594;22;20353;-96
2022/08/17 03:19:37;;;;;;;12.52;10.02;;;;;;;;;;6208098;22;20020;-95
2022/08/17 03:22:14;;;;;;;13.95;11.07;;;;;;;;;;6228159;22;20103;-96
2022/08/17 03:25:13;;;;;;;13.68;11.20;;;;;;;;;;6208432;22;20015;-96
2022/08/17 03:27:49;;;;;;;16.05;10.50;;;;;;;;;;6203587;22;20035;-95
2022/08/17 03:30:21;;;;;;;13.82;10.63;;;;;;;;;;6203736;22;20016;-96
2022/08/17 03:33:19;;;;;;;13.05;10.13;;;;;;;;;;6234032;22;20333;-96
2022/08/17 03:35:52;;;;;;;12.45;10.55;;;;;;;;;;6226764;22;20493;-95
2022/08/17 03:38:20;;;;;;;17.17;11.57;;;;;;;;;;6202114;22;20022;-96
2022/08/17 03:40:52;;;;;;;14.68;10.80;;;;;;;;;;6203455;22;20058;-96
2022/08/17 03:43:50;;;;;;;12.30;9.88;;;;;;;;;;6233625;22;20028;-96
2022/08/17 03:57:38;;;;;;;13.50;10.65;;;;;;;;;;6226764;22;20066;-95
2022/08/17 04:00:12;;;;;;;15.05;11.52;;;;;;;;;;6237915;22;20043;-95
2022/08/17 04:02:41;;;;;;;15.93;11.40;;;;;;;;;;6227562;22;20074;-96
2022/08/17 04:05:08;;;;;;;15.18;11.02;;;;;;;;;;6263190;22;20026;-96
2022/08/17 04:07:36;;;;;;;14.13;11.20;;;;;;;;;;6225654;22;20027;-88
2022/08/17 04:10:05;;;;;;;14.23;11.75;;;;;;;;;;6259355;22;20019;-88
2022/08/17 04:13:07;;;;;;;15.75;12.00;;;;;;;;;;6198760;22;20047;-88
2022/08/17 04:15:34;;;;;;;15.48;11.27;;;;;;;;;;6107480;23;20105;-88
2022/08/17 04:18:06;;;;;;;15.52;11.95;;;;;;;;;;6150267;23;20060;-95
2022/08/17 04:20:36;;;;;;;17.13;11.88;;;;;;;;;;6111676;23;20021;-96
2022/08/17 04:23:13;;;;;;;17.15;12.93;;;;;;;;;;6106171;23;20024;-95
2022/08/17 04:25:52;;;;;;;17.92;12.75;;;;;;;;;;6139440;23;20017;-96
2022/08/17 04:28:20;;;;;;;17.45;12.68;;;;;;;;;;6128449;23;20025;-88
2022/08/17 04:31:13;;;;;;;15.85;12.27;;;;;;;;;;6102803;23;20045;-88
2022/08/17 04:34:06;;;;;;;15.65;11.98;;;;;;;;;;6143232;23;20052;-88
2022/08/17 04:36:35;;;;;;;16.15;11.98;;;;;;;;;;6080663;23;20464;-91
2022/08/17 04:39:16;;;;;;;15.93;11.77;;;;;;;;;;6086481;23;20025;-96
2022/08/17 04:42:07;;;;;;;14.82;11.63;;;;;;;;;;6151495;23;20089;-96
2022/08/17 04:45:03;;;;;;;18.80;13.50;;;;;;;;;;6147866;23;20022;-96
2022/08/17 04:47:30;;;;;;;16.42;12.55;;;;;;;;;;6135959;23;20297;-90
2022/08/17 04:50:01;;;;;;;14.45;11.77;;;;;;;;;;6138618;23;20100;-90
2022/08/17 04:52:44;;;;;;;16.88;12.05;;;;;;;;;;6250061;22;20046;-87
2022/08/17 04:55:16;;;;;;;16.58;12.88;;;;;;;;;;6261641;22;20043;-92
2022/08/17 04:57:44;;;;;;;16.33;12.75;;;;;;;;;;6255548;22;20012;-91
2022/08/17 05:00:13;;;;;;;17.08;12.63;;;;;;;;;;6200824;22;20042;-91
2022/08/17 05:02:47;;;;;;;16.30;12.75;;;;;;;;;;6249637;22;20019;-92
2022/08/17 05:05:37;;;;;;;15.00;12.38;;;;;;;;;;6200665;22;20023;-92
2022/08/17 05:08:06;;;;;;;16.98;13.65;;;;;;;;;;6254963;22;20043;-85
2022/08/17 05:10:37;;;;;;;15.23;12.00;;;;;;;;;;6280439;22;20050;-85
2022/08/17 05:13:14;;;;;;;16.08;13.02;;;;;;;;;;6279829;22;20015;-85
2022/08/17 05:15:49;;;;;;;16.27;13.13;;;;;;;;;;6281716;22;20023;-86
2022/08/17 05:18:16;;;;;;;17.77;14.13;;;;;;;;;;6231395;22;20031;-85
2022/08/17 05:20:44;;;;;;;17.13;13.05;;;;;;;;;;6227004;22;20024;-87
2022/08/17 05:23:15;;;;;;;18.48;13.68;;;;;;;;;;6259073;22;20053;-87
2022/08/17 05:25:48;;;;;;;21.02;13.98;;;;;;;;;;6283937;22;20050;-88
2022/08/17 05:28:18;;;;;;;17.77;13.55;;;;;;;;;;6258741;22;20079;-88
2022/08/17 05:30:56;;;;;;;20.08;14.60;;;;;;;;;;6267083;22;20024;-87
2022/08/17 05:33:36;;;;;;;20.65;14.60;;;;;;;;;;6247065;22;20016;-85
2022/08/17 05:36:12;;;;;;;16.67;13.43;;;;;;;;;;6283242;22;20130;-86
2022/08/17 05:39:30;;;;;;;19.42;13.82;;;;;;;;;;6278541;22;20015;-87
2022/08/17 05:42:00;;;;;;;20.08;14.63;;;;;;;;;;6295996;22;20012;-86
2022/08/17 05:44:32;;;;;;;20.80;14.18;;;;;;;;;;6293805;22;20146;-85
2022/08/17 05:47:06;;;;;;;22.85;14.48;;;;;;;;;;6282378;22;20043;-84
2022/08/17 05:49:37;;;;;;;17.52;14.15;;;;;;;;;;6258861;22;20024;-84
2022/08/17 05:52:11;;;;;;;19.10;15.10;;;;;;;;;;6247075;22;20152;-84
2022/08/17 05:55:01;;;;;;;19.25;14.65;;;;;;;;;;6291878;22;20372;-86
2022/08/17 05:57:40;;;;;;;17.73;14.20;;;;;;;;;;6281163;22;20395;-86
2022/08/17 06:00:41;;;;;;;20.58;15.43;;;;;;;;;;6270447;22;20026;-84
2022/08/17 06:03:31;;;;;;;22.98;16.08;;;;;;;;;;6282898;22;20035;-87
2022/08/17 06:06:25;;;;;;;;;;;;;;;;;;6282239;22;20023;-86
2022/08/17 06:09:13;;;;;;;17.98;13.30;;;;;;;;;;6255465;22;19919;-86
2022/08/17 06:11:43;;;;;;;19.15;14.25;;;;;;;;;;6227665;22;20022;-86
2022/08/17 06:14:39;;;;;;;;;;;;;;;;;;6218581;22;20019;-87
2022/08/17 06:17:17;;;;;;;15.60;13.25;;;;;;;;;;6243990;22;19919;-86
2022/08/17 06:20:10;;;;;;;18.90;14.13;;;;;;;;;;6281594;22;20386;-86
2022/08/17 06:22:48;;;;;;;19.35;13.65;;;;;;;;;;6256190;22;20023;-85
2022/08/17 06:25:46;;;;;;;18.67;13.00;;;;;;;;;;6253400;22;20320;-86
2022/08/17 06:28:24;;;;;;;21.08;15.13;;;;;;;;;;6253113;22;20074;-86
2022/08/17 06:31:26;;;;;;;18.48;14.13;;;;;;;;;;6276957;22;20015;-87
2022/08/17 06:34:01;;;;;;;24.67;17.33;;;;;;;;;;6278775;22;20019;-86
2022/08/17 06:36:31;;;;;;;24.60;15.63;;;;;;;;;;6280513;22;20043;-86
2022/08/17 06:39:51;;;;;;;22.63;16.10;;;;;;;;;;6278558;22;20021;-86
2022/08/17 06:42:53;;;;;;;23.30;16.58;;;;;;;;;;6278871;22;20003;-87
2022/08/17 06:45:47;;;;;;;22.40;15.82;;;;;;;;;;6281618;22;20337;-86
2022/08/17 06:48:52;;;;;;;19.85;15.50;;;;;;;;;;6253923;22;20103;-86
2022/08/17 06:51:29;;;;;;;23.05;15.52;;;;;;;;;;6281218;22;20024;-87
2022/08/17 06:54:20;;;;;;;18.67;12.90;;;;;;;;;;6281571;22;20387;-86
2022/08/17 06:57:27;;;;;;;19.08;13.10;;;;;;;;;;6156965;23;20073;-87
2022/08/17 07:00:07;;;;;;;19.15;13.63;;;;;;;;;;6040276;23;20456;-86
2022/08/17 07:03:00;;;;;;;16.10;12.55;;;;;;;;;;6038951;23;20027;-87
2022/08/17 07:05:46;;;;;;;;;;;;;;;;;;6008658;23;20110;-86
2022/08/17 07:08:23;;;;;;;14.75;10.77;;;;;;;;;;6031123;23;19993;-86
2022/08/17 07:11:13;;;;;;;17.05;11.43;;;;;;;;;;6040778;23;20027;-86
2022/08/17 07:14:51;;;;;;;16.92;10.57;;;;;;;;;;6031964;23;20090;-87
2022/08/17 07:17:21;;;;;;;15.35;10.38;;;;;;;;;;6038848;23;20027;-87
2022/08/17 07:20:19;;;;;;;;;;;;;;;;;;6042024;23;20632;-87
2022/08/17 07:23:38;;;;;;;15.88;10.77;;;;;;;;;;6017182;23;20369;-86
2022/08/17 07:26:08;;;;;;;15.50;9.68;;;;;;;;;;5932878;24;20033;-87
2022/08/17 07:29:15;;;;;;;15.98;11.45;;;;;;;;;;5956585;24;20035;-87
2022/08/17 07:31:47;;;;;;;14.68;10.45;;;;;;;;;;5955044;24;20035;-86
2022/08/17 07:35:09;;;;;;;20.80;10.55;;;;;;;;;;6100129;23;20096;-86
2022/08/17 07:37:54;;;;;;;15.63;11.10;;;;;;;;;;6154508;23;20029;-87
2022/08/17 07:40:33;;;;;;;14.15;10.00;;;;;;;;;;6098139;23;20060;-87
2022/08/17 07:43:31;;;;;;;15.30;9.80;;;;;;;;;;6156863;23;20014;-87
2022/08/17 07:49:06;;;;;;;14.45;9.38;;;;;;;;;;6132120;23;20108;-86
2022/08/17 07:51:45;;;;;;;12.52;8.75;;;;;;;;;;6132874;23;20344;-86
2022/08/17 07:54:20;;;;;;;12.93;8.02;;;;;;;;;;6122812;23;20021;-85
2022/08/17 07:57:22;;;;;;;10.27;7.50;;;;;;;;;;6132925;23;20036;-86
2022/08/17 07:59:59;;;;;;;12.10;7.65;;;;;;;;;;6099735;23;20055;-86
2022/08/17 08:02:44;;;;;;;10.38;7.97;;;;;;;;;;6225222;22;20019;-86
2022/08/17 08:05:25;;;;;;;12.43;7.28;;;;;;;;;;6255271;22;20023;-86
2022/08/17 08:08:41;;;;;;;9.43;7.15;;;;;;;;;;6259481;22;20018;-86
2022/08/17 08:11:14;;;;;;;9.18;7.13;;;;;;;;;;6253984;22;20019;-86
2022/08/17 08:13:44;;;;;;;10.00;5.88;;;;;;;;;;6282327;22;20432;-86
2022/08/17 08:16:15;;;;;;;7.63;6.50;;;;;;;;;;6281468;22;20478;-87
2022/08/17 08:18:52;;;;;;;10.20;6.10;;;;;;;;;;6244152;22;20019;-88
2022/08/17 08:21:54;;;;;;;8.30;6.47;;;;;;;;;;6282823;22;20091;-85
2022/08/17 08:24:44;;;;;;;9.25;6.55;;;;;;;;;;6284705;22;20030;-88
2022/08/17 08:27:43;;;;;;;9.70;6.78;;;;;;;;;;6251253;22;20026;-87
2022/08/17 08:30:17;;;;;;;9.85;6.00;;;;;;;;;;6280540;22;20047;-88
2022/08/17 08:32:53;;;;;;;9.27;6.47;;;;;;;;;;6228456;22;20549;-88
2022/08/17 08:35:39;;;;;;;7.80;6.20;;;;;;;;;;6273740;22;20089;-88
2022/08/17 08:39:03;;;;;;;8.65;6.78;;;;;;;;;;6281674;22;20039;-87
2022/08/17 08:41:37;;;;;;;8.95;6.55;;;;;;;;;;6254942;22;20020;-87
2022/08/17 08:44:35;;;;;;;7.43;5.78;;;;;;;;;;6256479;22;20026;-87
2022/08/17 08:47:34;;;;;;;7.53;6.53;;;;;;;;;;6283150;22;20015;-86
2022/08/17 08:50:08;;;;;;;8.50;5.97;;;;;;;;;;6259353;22;20019;-86
2022/08/17 08:53:30;;;;;;;7.60;5.28;;;;;;;;;;6294280;22;20054;-87
2022/08/17 08:56:23;;;;;;;8.80;6.40;;;;;;;;;;6254258;22;20019;-85
2022/08/17 08:59:21;;;;;;;9.35;5.65;;;;;;;;;;6261840;22;20095;-85
2022/08/17 09:01:48;;;;;;;8.60;6.00;;;;;;;;;;6262865;22;20031;-86
2022/08/17 09:04:44;;;;;;;6.25;4.85;;;;;;;;;;6230219;22;20020;-86
2022/08/17 09:07:59;;;;;;;8.07;5.88;;;;;;;;;;6287119;22;20012;-86
2022/08/17 09:10:35;;;;;;;8.60;6.25;;;;;;;;;;6288858;22;20022;-86
2022/08/17 09:13:14;;;;;;;7.45;6.10;;;;;;;;;;6261958;22;20019;-86
2022/08/17 09:15:54;;;;;;;12.40;6.45;;;;;;;;;;6286763;22;20112;-86
2022/08/17 09:18:51;;;;;;;8.35;6.10;;;;;;;;;;6260614;22;20018;-86
2022/08/17 09:21:51;;;;;;;9.05;6.00;;;;;;;;;;6286620;22;20062;-85
2022/08/17 09:24:24;;;;;;;8.77;5.78;;;;;;;;;;6250180;22;20020;-86
2022/08/17 09:27:12;;;;;;;7.95;5.40;;;;;;;;;;6249172;22;20020;-86
2022/08/17 09:29:56;;;;;;;8.07;5.90;;;;;;;;;;6237998;22;20020;-86
2022/08/17 09:32:36;;;;;;;8.10;5.65;;;;;;;;;;6285769;22;20015;-86
2022/08/17 09:35:09;;;;;;;7.32;5.32;;;;;;;;;;6288720;22;20019;-86
2022/08/17 09:37:49;;;;;;;8.38;5.00;;;;;;;;;;6289174;22;20054;-85
2022/08/17 09:40:27;;;;;;;7.57;5.50;;;;;;;;;;6289156;22;20095;-86
2022/08/17 09:43:18;;;;;;;8.55;5.53;;;;;;;;;;6285977;22;20015;-87
2022/08/17 09:45:50;;;;;;;9.30;5.70;;;;;;;;;;6253895;22;20073;-86
2022/08/17 09:49:08;;;;;;;8.48;5.10;;;;;;;;;;6242491;22;20414;-87
2022/08/17 09:51:52;;;;;;;7.80;5.00;;;;;;;;;;6284310;22;20015;-85
2022/08/17 09:54:29;;;;;;;8.10;5.07;;;;;;;;;;6280895;22;20046;-87
2022/08/17 09:57:25;;;;;;;8.13;5.28;;;;;;;;;;6281379;22;20475;-87
2022/08/17 10:00:29;;;;;;;7.35;4.72;;;;;;;;;;6282615;22;20023;-88
2022/08/17 10:03:15;;;;;;;6.68;5.00;;;;;;;;;;6253603;22;20011;-87
2022/08/17 10:06:14;;;;;;;8.38;5.22;;;;;;;;;;6281303;22;20086;-88
2022/08/17 10:09:08;;;;;;;6.40;4.93;;;;;;;;;;6255414;22;20016;-87
2022/08/17 10:14:47;;;;;;;6.70;4.70;;;;;;;;;;6281599;22;20035;-87
2022/08/17 10:17:23;;;;;;;8.25;4.82;;;;;;;;;;6218529;22;20016;-87
2022/08/17 10:20:03;;;;;;;8.35;5.07;;;;;;;;;;6254941;22;20401;-87
2022/08/17 10:26:13;;;;;;;6.40;4.50;;;;;;;;;;6128942;23;20026;-87
2022/08/17 10:28:47;;;;;;;7.40;4.47;;;;;;;;;;6111126;23;20026;-87
2022/08/17 10:31:37;;;;;;;6.15;4.25;;;;;;;;;;6159776;23;20071;-87
2022/08/17 10:34:48;;;;;;;6.40;4.70;;;;;;;;;;6157960;23;20024;-86
2022/08/17 10:37:28;;;;;;;6.80;4.60;;;;;;;;;;6134311;23;20029;-87
2022/08/17 10:40:18;;;;;;;7.93;4.35;;;;;;;;;;6133292;23;20025;-87
2022/08/17 10:43:23;;;;;;;7.82;4.10;;;;;;;;;;6157514;23;20027;-86
2022/08/17 10:46:23;;;;;;;6.38;4.22;;;;;;;;;;6157935;23;20025;-87
2022/08/17 10:49:16;;;;;;;6.85;4.07;;;;;;;;;;6013280;23;20086;-87
2022/08/17 10:51:47;;;;;;;5.72;4.30;;;;;;;;;;6013819;23;20026;-86
2022/08/17 10:54:23;;;;;;;6.10;3.80;;;;;;;;;;6048662;23;20391;-86
2022/08/17 10:57:26;;;;;;;6.85;4.05;;;;;;;;;;6070859;23;20027;-86
2022/08/17 10:59:58;;;;;;;6.85;4.15;;;;;;;;;;6068393;23;20034;-86
2022/08/17 11:02:37;;;;;;;6.80;4.18;;;;;;;;;;6182625;23;20028;-86
2022/08/17 11:05:40;;;;;;;6.57;4.72;;;;;;;;;;6177374;23;20322;-86
2022/08/17 11:08:31;;;;;;;5.72;3.90;;;;;;;;;;6184508;23;20031;-87
2022/08/17 11:11:13;;;;;;;7.07;4.15;;;;;;;;;;6184224;23;20029;-88
2022/08/17 11:14:10;;;;;;;5.18;4.18;;;;;;;;;;6160532;23;20050;-88
2022/08/17 11:16:58;;;;;;;7.05;3.95;;;;;;;;;;6181823;23;20195;-88
2022/08/17 11:19:33;;;;;;;11.15;4.55;;;;;;;;;;6183724;23;20469;-88
2022/08/17 11:22:16;;;;;;;5.97;4.43;;;;;;;;;;6158840;23;20104;-87
2022/08/17 11:24:51;;;;;;;4.88;4.25;;;;;;;;;;6177257;23;20025;-87
2022/08/17 11:27:48;;;;;;;7.38;4.43;;;;;;;;;;6281300;22;20019;-86
2022/08/17 11:30:46;;;;;;;8.05;4.15;;;;;;;;;;6269222;22;20015;-87
2022/08/17 11:33:33;;;;;;;5.88;4.20;;;;;;;;;;6251824;22;20019;-86
2022/08/17 11:36:05;;;;;;;5.80;4.43;;;;;;;;;;6260312;22;20069;-86
2022/08/17 11:39:03;;;;;;;8.95;4.30;;;;;;;;;;6243073;22;20106;-85
2022/08/17 11:42:36;;;;;;;7.72;4.40;;;;;;;;;;6280400;22;20038;-86
2022/08/17 11:45:14;;;;;;;9.00;4.78;;;;;;;;;;6252285;22;20073;-86
2022/08/17 11:54:16;;;;;;;9.05;4.63;;;;;;;;;;6154860;23;20048;-86
2022/08/17 11:57:26;;;;;;;7.03;4.70;;;;;;;;;;6132839;23;20033;-87
2022/08/17 12:00:06;;;;;;;6.68;4.30;;;;;;;;;;6146690;23;20026;-86
2022/08/17 12:02:41;;;;;;;5.90;4.15;;;;;;;;;;6153573;23;20028;-86
2022/08/17 12:05:21;;;;;;;7.45;4.13;;;;;;;;;;6121017;23;20017;-87
2022/08/17 12:08:14;;;;;;;6.80;4.75;;;;;;;;;;6119480;23;20029;-86
2022/08/17 12:10:58;;;;;;;10.18;4.65;;;;;;;;;;6144397;23;20165;-86
2022/08/17 12:13:30;;;;;;;7.50;5.28;;;;;;;;;;6154809;23;20512;-87
2022/08/17 12:16:08;;;;;;;9.60;4.85;;;;;;;;;;6119345;23;20049;-86
2022/08/17 12:18:38;;;;;;;7.65;4.68;;;;;;;;;;6154458;23;20025;-86
2022/08/17 12:21:22;;;;;;;6.85;4.60;;;;;;;;;;6154552;23;20398;-86
2022/08/17 12:24:05;;;;;;;5.82;4.15;;;;;;;;;;6154480;23;20018;-87
2022/08/17 12:26:35;;;;;;;6.40;3.92;;;;;;;;;;6145039;23;20104;-86
2022/08/17 12:29:13;;;;;;;6.07;3.95;;;;;;;;;;6154184;23;20084;-86
2022/08/17 12:32:02;;;;;;;6.03;4.13;;;;;;;;;;6259167;22;20023;-85
2022/08/17 12:34:39;;;;;;;4.85;3.53;;;;;;;;;;6254123;22;20015;-84
2022/08/17 12:37:43;;;;;;;9.13;4.43;;;;;;;;;;6281009;22;20035;-85
2022/08/17 12:40:36;;;;;;;7.20;3.85;;;;;;;;;;6291661;22;20008;-87
2022/08/17 12:43:21;;;;;;;5.28;4.05;;;;;;;;;;6295565;22;20016;-85
2022/08/17 12:45:58;;;;;;;6.75;4.53;;;;;;;;;;6295127;22;20098;-85
2022/08/17 12:48:33;;;;;;;9.13;4.72;;;;;;;;;;6298599;22;20022;-86
2022/08/17 12:51:27;;;;;;;8.07;4.70;;;;;;;;;;6261599;22;20044;-88
2022/08/17 12:53:54;;;;;;;5.30;4.13;;;;;;;;;;6281923;22;20086;-87
2022/08/17 12:56:22;;;;;;;7.20;4.25;;;;;;;;;;6279380;22;20065;-87
2022/08/17 12:58:55;;;;;;;6.15;4.53;;;;;;;;;;6281775;22;20403;-85
2022/08/17 13:01:23;;;;;;;7.10;4.88;;;;;;;;;;6258551;22;20040;-86
2022/08/17 13:03:58;;;;;;;9.00;4.70;;;;;;;;;;6305024;22;20067;-86
2022/08/17 13:06:32;;;;;;;6.63;4.70;;;;;;;;;;6285219;22;20119;-88
2022/08/17 13:09:10;;;;;;;8.77;4.38;;;;;;;;;;6283855;22;20016;-87
2022/08/17 13:11:49;;;;;;;11.32;4.53;;;;;;;;;;6265521;22;20023;-86
2022/08/17 13:14:17;;;;;;;6.63;4.50;;;;;;;;;;6303389;22;20021;-86
2022/08/17 13:16:52;;;;;;;8.60;4.28;;;;;;;;;;6300327;22;20025;-85
2022/08/17 13:19:22;;;;;;;5.45;4.32;;;;;;;;;;6257298;22;20036;-85
2022/08/17 13:22:11;;;;;;;9.57;4.18;;;;;;;;;;6294099;22;20020;-85
2022/08/17 13:24:53;;;;;;;5.72;4.38;;;;;;;;;;6286703;22;20034;-86
2022/08/17 13:27:24;;;;;;;6.88;4.13;;;;;;;;;;6251945;22;20459;-87
2022/08/17 13:30:27;;;;;;;8.07;4.28;;;;;;;;;;6283974;22;20030;-86
2022/08/17 13:32:56;;;;;;;7.00;4.35;;;;;;;;;;6278532;22;20015;-87
2022/08/17 13:35:44;;;;;;;6.03;4.10;;;;;;;;;;6269820;22;20020;-87
2022/08/17 13:38:44;;;;;;;6.55;4.28;;;;;;;;;;6242539;22;20046;-87
2022/08/17 13:41:37;;;;;;;7.50;4.47;;;;;;;;;;6278799;22;20020;-87
2022/08/17 13:44:29;;;;;;;7.25;4.78;;;;;;;;;;6254682;22;20016;-87
2022/08/17 13:46:58;;;;;;;7.85;4.57;;;;;;;;;;6277004;22;20316;-87
2022/08/17 13:49:30;;;;;;;6.68;4.03;;;;;;;;;;6250820;22;20070;-87
2022/08/17 13:52:42;;;;;;;6.38;4.47;;;;;;;;;;6278266;22;20091;-85
2022/08/17 13:55:31;;;;;;;6.50;4.10;;;;;;;;;;6254240;22;20030;-88
2022/08/17 13:58:24;;;;;;;8.20;4.32;;;;;;;;;;6212614;23;20178;-88
2022/08/17 14:01:37;;;;;;;7.13;4.70;;;;;;;;;;6205226;23;20027;-88
2022/08/17 14:04:14;;;;;;;7.32;4.47;;;;;;;;;;6216492;23;20056;-88
2022/08/17 14:07:19;;;;;;;8.43;5.13;;;;;;;;;;6178640;23;20028;-88
2022/08/17 14:09:54;;;;;;;8.82;4.65;;;;;;;;;;6190964;23;20075;-88
2022/08/17 14:12:25;;;;;;;8.85;4.82;;;;;;;;;;6214538;23;20047;-88
2022/08/17 14:15:20;;;;;;;7.38;4.53;;;;;;;;;;6194915;23;20016;-87
2022/08/17 14:18:18;;;;;;;8.30;4.75;;;;;;;;;;6193229;23;20029;-87
2022/08/17 14:21:17;;;;;;;11.75;4.65;;;;;;;;;;6214598;23;20583;-87
2022/08/17 14:23:44;;;;;;;10.02;4.35;;;;;;;;;;6191403;23;20029;-87
2022/08/17 14:26:20;;;;;;;5.30;4.70;;;;;;;;;;6182342;23;20069;-87
2022/08/17 14:28:50;;;;;;;8.48;4.40;;;;;;;;;;6177740;23;20025;-88
2022/08/17 14:31:26;;;;;;;8.63;4.45;;;;;;;;;;6214033;23;20048;-87
2022/08/17 14:34:19;;;;;;;9.30;4.53;;;;;;;;;;6214709;23;20016;-88
2022/08/17 14:36:53;;;;;;;7.72;4.22;;;;;;;;;;6189093;23;20039;-88
2022/08/17 14:39:20;;;;;;;10.30;4.75;;;;;;;;;;6214742;23;20028;-88
2022/08/17 14:41:48;;;;;;;7.22;4.65;;;;;;;;;;6213103;23;20639;-87
2022/08/17 14:44:22;;;;;;;5.80;4.70;;;;;;;;;;6213539;23;20183;-87
2022/08/17 14:46:50;;;;;;;6.93;4.32;;;;;;;;;;6214647;23;20028;-87
2022/08/17 14:49:19;;;;;;;7.20;4.28;;;;;;;;;;6215707;23;20016;-87
2022/08/17 14:51:47;;;;;;;7.70;4.63;;;;;;;;;;6215004;23;20023;-87
2022/08/17 14:54:14;;;;;;;9.57;5.05;;;;;;;;;;6190428;23;20063;-87
2022/08/17 14:57:04;;;;;;;7.68;5.03;;;;;;;;;;6190009;23;20020;-87
2022/08/17 14:59:56;;;;;;;6.25;4.57;;;;;;;;;;6230267;23;20012;-87
2022/08/17 15:02:28;;;;;;;7.10;5.03;;;;;;;;;;6271054;22;20038;-86
2022/08/17 15:05:02;;;;;;;10.45;5.70;;;;;;;;;;6285723;22;20087;-85
2022/08/17 15:07:34;;;;;;;11.07;5.78;;;;;;;;;;6264531;22;20020;-87
2022/08/17 15:10:03;;;;;;;6.93;5.05;;;;;;;;;;6259543;22;20049;-86
2022/08/17 15:12:30;;;;;;;8.30;5.72;;;;;;;;;;6278671;22;20011;-86
2022/08/17 15:15:03;;;;;;;11.05;5.70;;;;;;;;;;6271925;22;20042;-87
2022/08/17 15:17:37;;;;;;;7.95;5.47;;;;;;;;;;6304859;22;20072;-87
2022/08/17 15:20:26;;;;;;;8.50;5.63;;;;;;;;;;6260170;22;20016;-87
2022/08/17 15:22:56;;;;;;;7.70;6.00;;;;;;;;;;6298616;22;20016;-87
2022/08/17 15:25:26;;;;;;;9.20;6.30;;;;;;;;;;6269505;22;20016;-87
2022/08/17 15:27:59;;;;;;;10.48;6.75;;;;;;;;;;6261221;22;20058;-86
2022/08/17 15:30:33;;;;;;;8.77;7.07;;;;;;;;;;6281005;22;20706;-87
2022/08/17 15:33:29;;;;;;;9.43;5.70;;;;;;;;;;6267436;22;20360;-87
2022/08/17 15:36:00;;;;;;;11.38;6.75;;;;;;;;;;6281300;22;20012;-87
2022/08/17 15:38:29;;;;;;;7.20;6.13;;;;;;;;;;6285781;22;20027;-87
2022/08/17 15:40:57;;;;;;;7.60;6.32;;;;;;;;;;6272928;22;20019;-87
2022/08/17 15:43:32;;;;;;;10.82;6.57;;;;;;;;;;6297293;22;20016;-87
2022/08/17 15:46:09;;;;;;;10.55;6.63;;;;;;;;;;6263265;22;20067;-87
2022/08/17 15:48:45;;;;;;;8.02;6.50;;;;;;;;;;6282513;22;20028;-86
2022/08/17 15:51:37;;;;;;;8.05;6.35;;;;;;;;;;6278171;22;20474;-85
2022/08/17 15:54:10;;;;;;;8.25;6.10;;;;;;;;;;6226798;22;20027;-87
2022/08/17 15:56:49;;;;;;;7.00;5.63;;;;;;;;;;6229765;22;20023;-85
2022/08/17 15:59:17;;;;;;;7.90;6.05;;;;;;;;;;6251376;22;20025;-85
2022/08/17 16:02:25;;;;;;;10.32;5.75;;;;;;;;;;6280329;22;20026;-88
2022/08/17 16:05:38;;;;;;;7.47;5.57;;;;;;;;;;6251449;22;20012;-88
2022/08/17 16:08:06;;;;;;;9.35;5.80;;;;;;;;;;6277829;22;20019;-88
2022/08/17 16:10:39;;;;;;;8.75;5.53;;;;;;;;;;6282602;22;20122;-88
2022/08/17 16:13:09;;;;;;;7.15;5.78;;;;;;;;;;6229585;22;20020;-88
2022/08/17 16:15:48;;;;;;;8.77;5.60;;;;;;;;;;6278484;22;20090;-88
2022/08/17 16:18:29;;;;;;;9.95;6.25;;;;;;;;;;6277743;22;20089;-88
2022/08/17 16:24:14;;;;;;;8.93;5.95;;;;;;;;;;6283496;22;20387;-88
2022/08/17 16:27:07;;;;;;;7.82;5.53;;;;;;;;;;6253879;22;20018;-87
2022/08/17 16:30:06;;;;;;;8.68;6.10;;;;;;;;;;6264111;22;20455;-86
2022/08/17 16:32:35;;;;;;;10.20;5.70;;;;;;;;;;6285440;22;20019;-85
2022/08/17 16:35:04;;;;;;;11.70;5.70;;;;;;;;;;6286738;22;20134;-85
2022/08/17 16:37:32;;;;;;;8.48;6.25;;;;;;;;;;6260090;22;20045;-86
2022/08/17 16:40:00;;;;;;;11.57;5.72;;;;;;;;;;6232851;23;20020;-86
2022/08/17 16:42:31;;;;;;;9.57;6.13;;;;;;;;;;6277541;22;20075;-86